createdAt,value
2019-01-11T00:01:00.340Z,97.49
2019-01-11T00:03:29.407Z,97.41
2019-01-11T00:05:58.540Z,96.85
2019-01-11T00:08:29.063Z,97.51
2019-01-11T00:10:58.195Z,97.77
2019-01-11T00:13:27.296Z,97.77
2019-01-11T00:15:56.499Z,96.75
2019-01-11T00:18:26.365Z,96.96
2019-01-11T00:20:55.469Z,96.96
2019-01-11T00:23:24.676Z,97.39
2019-01-11T00:25:53.852Z,97.54
2019-01-11T00:28:22.982Z,97.80
2019-01-11T00:30:52.146Z,97.42
2019-01-11T00:33:21.342Z,96.89
2019-01-11T00:35:50.487Z,97.49
2019-01-11T00:38:19.616Z,97.49
2019-01-11T00:40:48.824Z,98.05
2019-01-11T00:43:18.026Z,97.66
2019-01-11T00:45:47.119Z,97.66
2019-01-11T00:48:16.304Z,97.24
2019-01-11T00:50:45.565Z,97.19
2019-01-11T00:53:14.696Z,97.22
2019-01-11T00:55:43.873Z,97.22
2019-01-11T00:58:12.894Z,97.64
2019-01-11T01:00:42.060Z,98.06
2019-01-11T01:03:11.228Z,97.82
2019-01-11T01:05:40.438Z,97.27
2019-01-11T01:08:09.632Z,97.27
2019-01-11T01:10:38.913Z,97.61
2019-01-11T01:13:08.185Z,98.28
2019-01-11T01:15:37.445Z,98.38
2019-01-11T01:18:06.651Z,98.38
2019-01-11T01:20:36.443Z,98.28
2019-01-11T01:23:05.624Z,98.35
2019-01-11T01:25:34.752Z,98.14
2019-01-11T01:28:04.121Z,98.14
2019-01-11T01:30:33.251Z,98.14
2019-01-11T01:33:02.397Z,98.29
2019-01-11T01:35:31.601Z,98.06
2019-01-11T01:38:00.865Z,98.06
2019-01-11T01:40:30.074Z,97.70
2019-01-11T01:42:59.124Z,98.16
2019-01-11T01:45:28.261Z,98.16
2019-01-11T01:47:57.448Z,97.81
2019-01-11T01:50:26.623Z,97.81
2019-01-11T01:52:55.769Z,97.70
2019-01-11T01:55:25.043Z,98.09
2019-01-11T01:57:54.195Z,98.09
2019-01-11T02:00:23.386Z,99.19
2019-01-11T02:02:52.649Z,98.89
2019-01-11T02:05:21.895Z,98.79
2019-01-11T02:07:51.088Z,98.79
2019-01-11T02:10:20.203Z,98.79
2019-01-11T02:12:49.318Z,98.76
2019-01-11T02:15:18.558Z,98.67
2019-01-11T02:17:47.710Z,99.21
2019-01-11T02:20:18.133Z,99.13
2019-01-11T02:22:47.330Z,99.06
2019-01-11T02:25:16.645Z,98.38
2019-01-11T02:27:45.794Z,98.67
2019-01-11T02:30:22.802Z,98.50
2019-01-11T02:32:53.212Z,98.56
2019-01-11T02:35:22.577Z,98.56
2019-01-11T02:37:51.819Z,98.56
2019-01-11T02:40:20.973Z,98.58
2019-01-11T02:42:50.065Z,99.21
2019-01-11T02:45:21.333Z,99.21
2019-01-11T02:47:50.590Z,98.45
2019-01-11T02:50:19.824Z,98.45
2019-01-11T02:52:48.999Z,98.06
2019-01-11T02:55:18.053Z,98.06
2019-01-11T02:57:47.091Z,98.65
2019-01-11T03:00:18.714Z,98.65
2019-01-11T03:02:48.474Z,98.69
2019-01-11T03:05:18.310Z,98.69
2019-01-11T03:07:47.959Z,99.09
2019-01-11T03:10:19.067Z,99.09
2019-01-11T03:12:48.321Z,99.39
2019-01-11T03:15:18.060Z,99.32
2019-01-11T03:17:47.233Z,99.32
2019-01-11T03:20:17.508Z,99.31
2019-01-11T03:22:46.785Z,99.18
2019-01-11T03:25:16.650Z,99.33
2019-01-11T03:27:45.903Z,99.33
2019-01-11T03:30:17.166Z,99.52
2019-01-11T03:32:46.233Z,99.21
2019-01-11T03:35:19.582Z,100.00
2019-01-11T03:37:50.412Z,100.00
2019-01-11T03:40:25.273Z,100.00
2019-01-11T03:42:54.550Z,100.00
2019-01-11T03:45:25.750Z,99.57
2019-01-11T03:47:55.039Z,99.60
2019-01-11T03:50:25.092Z,99.60
2019-01-11T03:52:54.198Z,99.81
2019-01-11T03:55:23.340Z,99.48
2019-01-11T03:57:52.579Z,99.29
2019-01-11T04:00:23.687Z,99.14
2019-01-11T04:02:52.866Z,99.71
2019-01-11T04:05:22.209Z,99.15
2019-01-11T04:07:51.646Z,99.01
2019-01-11T04:10:24.674Z,99.01
2019-01-11T04:12:53.927Z,99.30
2019-01-11T04:15:24.630Z,99.41
2019-01-11T04:18:28.294Z,99.41
2019-01-11T04:20:57.472Z,99.88
2019-01-11T04:23:26.632Z,99.88
2019-01-11T04:25:55.761Z,99.70
2019-01-11T04:28:24.861Z,99.58
2019-01-11T04:30:54.077Z,99.58
2019-01-11T04:33:23.222Z,99.70
2019-01-11T04:35:52.454Z,100.00
2019-01-11T04:38:21.488Z,100.00
2019-01-11T04:40:50.574Z,99.56
2019-01-11T04:43:19.706Z,99.56
2019-01-11T04:45:48.891Z,99.89
2019-01-11T04:48:18.093Z,100.00
2019-01-11T04:50:47.199Z,100.00
2019-01-11T04:53:16.307Z,100.00
2019-01-11T04:55:45.425Z,100.00
2019-01-11T04:58:14.558Z,100.00
2019-01-11T05:00:43.779Z,100.00
2019-01-11T05:03:12.971Z,100.00
2019-01-11T05:05:42.219Z,100.00
2019-01-11T05:08:11.262Z,100.00
2019-01-11T05:10:40.451Z,100.00
2019-01-11T05:13:30.783Z,100.00
2019-01-11T05:15:59.972Z,100.00
2019-01-11T05:18:30.149Z,100.00
2019-01-11T05:20:59.361Z,99.75
2019-01-11T05:23:28.608Z,99.75
2019-01-11T05:25:57.854Z,99.91
2019-01-11T05:28:27.391Z,99.91
2019-01-11T05:30:57.764Z,100.00
2019-01-11T05:33:26.964Z,100.00
2019-01-11T05:35:56.166Z,100.00
2019-01-11T05:38:25.334Z,100.00
2019-01-11T05:40:54.565Z,100.00
2019-01-11T05:43:23.583Z,100.00
2019-01-11T05:45:52.645Z,100.00
2019-01-11T05:48:21.696Z,100.00
2019-01-11T05:50:52.487Z,100.00
2019-01-11T05:53:21.578Z,99.96
2019-01-11T05:55:52.280Z,100.00
2019-01-11T05:58:38.457Z,100.00
2019-01-11T06:01:08.837Z,100.00
2019-01-11T06:03:40.076Z,100.00
2019-01-11T06:06:09.258Z,100.00
2019-01-11T06:08:38.763Z,100.00
2019-01-11T06:11:09.303Z,100.00
2019-01-11T06:13:38.438Z,100.00
2019-01-11T06:16:07.648Z,100.00
2019-01-11T06:18:36.912Z,100.00
2019-01-11T06:21:06.198Z,100.00
2019-01-11T06:23:35.270Z,100.00
2019-01-11T06:26:04.554Z,100.00
2019-01-11T06:28:33.780Z,100.00
2019-01-11T06:31:03.010Z,100.00
2019-01-11T06:33:32.094Z,100.00
2019-01-11T06:36:01.451Z,100.00
2019-01-11T06:38:30.566Z,100.00
2019-01-11T06:40:59.763Z,100.00
2019-01-11T06:43:28.968Z,100.00
2019-01-11T06:45:58.048Z,100.00
2019-01-11T06:48:38.605Z,100.00
2019-01-11T06:51:07.835Z,100.00
2019-01-11T06:53:37.004Z,100.00
2019-01-11T06:56:06.303Z,100.00
2019-01-11T06:58:35.441Z,100.00
2019-01-11T07:01:04.602Z,100.00
2019-01-11T07:03:34.542Z,100.00
2019-01-11T07:06:03.553Z,100.00
2019-01-11T07:08:32.705Z,100.00
2019-01-11T07:11:01.900Z,100.00
2019-01-11T07:13:31.065Z,100.00
2019-01-11T07:16:00.103Z,100.00
2019-01-11T07:18:29.299Z,100.00
2019-01-11T07:20:58.512Z,100.00
2019-01-11T07:23:27.718Z,100.00
2019-01-11T07:25:56.873Z,100.00
2019-01-11T07:28:25.941Z,100.00
2019-01-11T07:31:20.013Z,100.00
2019-01-11T07:33:49.166Z,100.00
2019-01-11T07:36:43.081Z,100.00
2019-01-11T07:39:30.056Z,100.00
2019-01-11T07:41:59.411Z,100.00
2019-01-11T07:44:28.581Z,100.00
2019-01-11T07:46:57.803Z,100.00
2019-01-11T07:49:28.507Z,100.00
2019-01-11T07:51:57.685Z,100.00
2019-01-11T07:54:26.894Z,100.00
2019-01-11T07:56:56.415Z,100.00
2019-01-11T07:59:25.420Z,100.00
2019-01-11T08:01:54.433Z,100.00
2019-01-11T08:04:23.657Z,100.00
2019-01-11T08:06:52.842Z,100.00
2019-01-11T08:09:22.107Z,100.00
2019-01-11T08:11:51.318Z,100.00
2019-01-11T08:14:20.365Z,100.00
2019-01-11T08:16:50.993Z,100.00
2019-01-11T08:19:21.104Z,100.00
2019-01-11T08:21:51.020Z,100.00
2019-01-11T08:24:24.928Z,100.00
2019-01-11T08:26:56.169Z,100.00
2019-01-11T08:29:25.881Z,100.00
2019-01-11T08:31:56.038Z,100.00
2019-01-11T08:34:27.356Z,100.00
2019-01-11T08:36:56.958Z,100.00
2019-01-11T08:39:32.357Z,100.00
2019-01-11T08:41:58.406Z,100.00
2019-01-11T08:44:27.541Z,100.00
2019-01-11T08:46:57.950Z,100.00
2019-01-11T08:49:29.254Z,100.00
2019-01-11T08:52:00.579Z,100.00
2019-01-11T08:54:29.616Z,100.00
2019-01-11T08:57:00.514Z,100.00
2019-01-11T08:59:30.680Z,100.00
2019-01-11T09:01:59.716Z,100.00
2019-01-11T09:04:29.453Z,100.00
2019-01-11T09:06:58.513Z,100.00
2019-01-11T09:09:27.591Z,100.00
2019-01-11T09:11:57.399Z,100.00
2019-01-11T09:14:52.733Z,100.00
2019-01-11T09:17:23.370Z,100.00
2019-01-11T09:19:55.055Z,100.00
2019-01-11T09:22:25.943Z,100.00
2019-01-11T09:24:57.496Z,100.00
2019-01-11T09:27:27.666Z,100.00
2019-01-11T09:29:56.848Z,100.00
2019-01-11T09:32:26.211Z,100.00
2019-01-11T09:34:55.386Z,100.00
2019-01-11T09:37:24.529Z,100.00
2019-01-11T09:39:53.684Z,100.00
2019-01-11T09:42:22.747Z,100.00
2019-01-11T09:44:51.815Z,100.00
2019-01-11T09:47:21.098Z,100.00
2019-01-11T09:49:51.093Z,100.00
2019-01-11T09:52:20.206Z,100.00
2019-01-11T09:54:49.416Z,100.00
2019-01-11T09:57:18.445Z,100.00
2019-01-11T09:59:47.551Z,100.00
2019-01-11T10:02:36.391Z,100.00
2019-01-11T10:05:07.588Z,100.00
2019-01-11T10:07:36.754Z,100.00
2019-01-11T10:10:10.474Z,100.00
2019-01-11T10:12:39.682Z,100.00
2019-01-11T10:15:10.159Z,100.00
2019-01-11T10:17:39.391Z,100.00
2019-01-11T10:20:10.894Z,100.00
2019-01-11T10:22:40.103Z,100.00
2019-01-11T10:25:09.576Z,100.00
2019-01-11T10:27:38.740Z,100.00
2019-01-11T10:30:11.122Z,100.00
2019-01-11T10:32:40.327Z,100.00
2019-01-11T10:35:09.929Z,100.00
2019-01-11T10:37:39.107Z,100.00
2019-01-11T10:40:11.214Z,100.00
2019-01-11T10:42:40.295Z,100.00
2019-01-11T10:45:12.732Z,100.00
2019-01-11T10:47:41.916Z,100.00
2019-01-11T10:50:13.757Z,100.00
2019-01-11T10:52:42.928Z,100.00
2019-01-11T10:55:13.504Z,100.00
2019-01-11T10:57:42.698Z,100.00
2019-01-11T11:00:16.150Z,100.00
2019-01-11T11:02:45.282Z,100.00
2019-01-11T11:05:14.484Z,100.00
2019-01-11T11:07:43.643Z,100.00
2019-01-11T11:10:15.008Z,100.00
2019-01-11T11:12:44.175Z,100.00
2019-01-11T11:15:14.150Z,100.00
2019-01-11T11:17:43.358Z,100.00
2019-01-11T11:20:14.305Z,100.00
2019-01-11T11:22:44.235Z,100.00
2019-01-11T11:25:16.176Z,100.00
2019-01-11T11:27:45.299Z,100.00
2019-01-11T11:30:15.618Z,99.83
2019-01-11T11:33:03.662Z,99.83
2019-01-11T11:35:33.060Z,100.00
2019-01-11T11:38:02.155Z,100.00
2019-01-11T11:40:32.496Z,100.00
2019-01-11T11:43:01.591Z,100.00
2019-01-11T11:45:30.950Z,100.00
2019-01-11T11:48:00.076Z,100.00
2019-01-11T11:50:29.248Z,100.00
2019-01-11T11:52:58.489Z,100.00
2019-01-11T11:55:28.192Z,100.00
2019-01-11T11:57:57.334Z,100.00
2019-01-11T12:00:28.002Z,99.34
2019-01-11T12:02:57.226Z,99.34
2019-01-11T12:05:26.421Z,99.43
2019-01-11T12:07:55.748Z,99.43
2019-01-11T12:10:24.854Z,99.69
2019-01-11T12:12:54.264Z,99.80
2019-01-11T12:15:23.390Z,99.67
2019-01-11T12:17:52.528Z,99.96
2019-01-11T12:20:30.680Z,99.37
2019-01-11T12:22:59.897Z,99.48
2019-01-11T12:25:29.024Z,99.48
2019-01-11T12:27:59.477Z,99.04
2019-01-11T12:30:28.600Z,99.04
2019-01-11T12:32:57.725Z,99.10
2019-01-11T12:35:26.946Z,99.10
2019-01-11T12:37:56.035Z,98.89
2019-01-11T12:40:25.169Z,98.63
2019-01-11T12:42:54.138Z,98.20
2019-01-11T12:45:23.368Z,97.85
2019-01-11T12:47:52.565Z,97.85
2019-01-11T12:50:26.736Z,98.43
2019-01-11T12:52:55.796Z,98.38
2019-01-11T12:55:24.920Z,97.68
2019-01-11T12:57:55.351Z,97.89
2019-01-11T13:00:24.503Z,97.89
2019-01-11T13:02:53.569Z,97.19
2019-01-11T13:05:23.141Z,98.46
2019-01-11T13:07:52.352Z,98.46
2019-01-11T13:10:22.018Z,98.93
2019-01-11T13:12:51.027Z,98.03
2019-01-11T13:15:22.030Z,97.21
2019-01-11T13:17:51.248Z,96.17
2019-01-11T13:20:21.552Z,96.17
2019-01-11T13:22:51.021Z,97.42
2019-01-11T13:25:20.209Z,97.42
2019-01-11T13:27:49.374Z,96.44
2019-01-11T13:30:18.999Z,97.06
2019-01-11T13:32:48.184Z,96.50
2019-01-11T13:35:17.418Z,96.50
2019-01-11T13:37:46.609Z,96.27
2019-01-11T13:40:21.403Z,96.31
2019-01-11T13:42:50.590Z,96.31
2019-01-11T13:45:19.796Z,96.86
2019-01-11T13:47:50.057Z,97.19
2019-01-11T13:50:36.303Z,97.34
2019-01-11T13:53:06.800Z,97.34
2019-01-11T13:55:36.091Z,97.20
2019-01-11T13:58:06.714Z,96.82
2019-01-11T14:00:35.946Z,97.18
2019-01-11T14:03:05.386Z,97.18
2019-01-11T14:05:34.507Z,96.71
2019-01-11T14:08:03.692Z,96.96
2019-01-11T14:10:32.725Z,97.34
2019-01-11T14:13:01.906Z,97.20
2019-01-11T14:15:31.052Z,97.33
2019-01-11T14:18:00.189Z,97.33
2019-01-11T14:20:29.356Z,97.25
2019-01-11T14:22:58.592Z,96.91
2019-01-11T14:25:27.635Z,96.98
2019-01-11T14:27:56.879Z,96.51
2019-01-11T14:30:26.033Z,96.51
2019-01-11T14:32:55.260Z,96.62
2019-01-11T14:35:24.433Z,96.82
2019-01-11T14:37:53.665Z,96.82
2019-01-11T14:40:22.729Z,97.04
2019-01-11T14:42:51.805Z,97.18
2019-01-11T14:45:21.010Z,97.18
2019-01-11T14:47:50.068Z,96.81
2019-01-11T14:50:20.069Z,97.38
2019-01-11T14:52:49.529Z,97.38
2019-01-11T14:55:18.624Z,97.22
2019-01-11T14:57:47.870Z,97.12
2019-01-11T15:00:19.896Z,97.16
2019-01-11T15:02:49.215Z,97.07
2019-01-11T15:05:18.766Z,97.07
2019-01-11T15:07:47.975Z,97.89
2019-01-11T15:10:17.705Z,97.37
2019-01-11T15:15:22.657Z,97.73
2019-01-11T15:17:51.946Z,97.25
2019-01-11T15:20:22.063Z,97.09
2019-01-11T15:22:51.313Z,96.68
2019-01-11T15:25:20.504Z,97.11
2019-01-11T15:27:49.688Z,97.52
2019-01-11T15:30:20.698Z,98.32
2019-01-11T15:32:49.944Z,98.32
2019-01-11T15:35:19.468Z,98.46
2019-01-11T15:37:48.732Z,98.96
2019-01-11T15:40:38.332Z,98.99
2019-01-11T15:43:07.495Z,98.90
2019-01-11T15:45:36.559Z,99.26
2019-01-11T15:48:07.405Z,99.26
2019-01-11T15:50:57.179Z,99.23
2019-01-11T15:53:29.461Z,98.64
2019-01-11T15:56:00.774Z,98.64
2019-01-11T15:58:29.968Z,98.59
2019-01-11T16:00:59.165Z,98.98
2019-01-11T16:03:28.281Z,98.64
2019-01-11T16:06:29.392Z,98.45
2019-01-11T16:10:00.331Z,98.52
2019-01-11T16:12:41.565Z,98.34
2019-01-11T16:15:41.099Z,98.73
2019-01-11T16:18:14.772Z,98.73
2019-01-11T16:20:43.938Z,98.69
2019-01-11T16:23:13.054Z,98.69
2019-01-11T16:25:42.267Z,98.59
2019-01-11T16:28:11.445Z,98.66
2019-01-11T16:30:40.557Z,98.64
2019-01-11T16:33:09.779Z,98.90
2019-01-11T16:35:38.883Z,98.90
2019-01-11T16:38:08.108Z,98.72
2019-01-11T16:40:37.358Z,98.65
2019-01-11T16:43:06.572Z,98.41
2019-01-11T16:45:35.721Z,98.54
2019-01-11T16:50:33.405Z,98.87
2019-01-11T16:53:02.499Z,91.37
